Time;durP1;ratioP1;P1;durP2;ratioP2;P2;SDS_P1;SDS_P2;PMS_P1;PMS_P2;Temp;Humidity;BMP_temperature;BMP_pressure;BME280_temperature;BME280_humidity;BME280_pressure;Samples;Min_cycle;Max_cycle;Signal;HPM_P1;HPM_P2
2021/06/21 00:01:53;;;;;;;13.77;9.02;;;20.00;85.90;;;;;;5075252;28;20380;-48
2021/06/21 00:04:18;;;;;;;11.45;9.23;;;20.10;85.90;;;;;;5093705;28;20028;-47
2021/06/21 00:06:44;;;;;;;10.05;9.05;;;20.20;86.10;;;;;;5093193;28;20483;-47
2021/06/21 00:09:09;;;;;;;10.05;9.07;;;20.20;85.90;;;;;;5093344;28;20024;-52
2021/06/21 00:11:35;;;;;;;11.60;8.95;;;20.00;86.10;;;;;;5093602;28;20391;-48
2021/06/21 00:14:01;;;;;;;12.20;9.73;;;20.20;86.10;;;;;;5092926;28;20467;-48
2021/06/21 00:16:27;;;;;;;12.50;9.63;;;20.30;85.70;;;;;;5092884;28;20395;-49
2021/06/21 00:18:53;;;;;;;11.80;10.13;;;20.20;86.80;;;;;;5093285;28;20404;-48
2021/06/21 00:21:20;;;;;;;14.15;10.02;;;20.30;86.90;;;;;;5092929;28;20093;-48
2021/06/21 00:23:45;;;;;;;14.43;11.30;;;20.10;86.90;;;;;;5092926;28;20020;-50
2021/06/21 00:26:11;;;;;;;16.85;11.52;;;19.90;88.20;;;;;;5092903;28;20032;-47
2021/06/21 00:28:37;;;;;;;15.32;13.25;;;19.60;89.20;;;;;;5093154;28;20028;-49
2021/06/21 00:31:03;;;;;;;17.52;14.20;;;19.50;90.40;;;;;;5077300;28;20044;-47
2021/06/21 00:33:29;;;;;;;20.70;14.60;;;19.40;90.50;;;;;;5096854;28;20031;-47
2021/06/21 00:35:54;;;;;;;14.00;12.65;;;19.40;90.80;;;;;;5096807;28;20020;-48
2021/06/21 00:38:20;;;;;;;15.13;13.55;;;19.40;90.60;;;;;;5096522;28;20015;-51
2021/06/21 00:40:45;;;;;;;21.08;14.90;;;19.30;90.80;;;;;;5096780;28;20438;-48
2021/06/21 00:43:11;;;;;;;15.40;13.80;;;19.30;90.90;;;;;;5096480;28;20024;-47
2021/06/21 00:45:37;;;;;;;21.67;15.43;;;19.20;91.00;;;;;;5096631;28;20056;-48
2021/06/21 00:48:03;;;;;;;17.67;15.73;;;19.20;91.20;;;;;;5096360;28;20074;-46
2021/06/21 00:50:30;;;;;;;17.95;15.90;;;19.20;91.10;;;;;;5096223;28;20023;-48
2021/06/21 00:52:58;;;;;;;19.77;16.27;;;19.00;91.50;;;;;;5096067;28;20027;-48
2021/06/21 00:55:24;;;;;;;20.75;16.00;;;19.00;91.50;;;;;;5096405;28;20032;-48
2021/06/21 00:57:51;;;;;;;21.35;17.90;;;19.00;91.50;;;;;;5096290;28;20471;-47
2021/06/21 01:00:19;;;;;;;17.90;14.38;;;19.00;91.60;;;;;;5077794;28;20043;-48
2021/06/21 01:02:45;;;;;;;18.60;16.60;;;19.10;91.60;;;;;;5095836;28;20556;-48
2021/06/21 01:05:20;;;;;;;17.15;15.45;;;19.00;91.90;;;;;;5096018;28;20024;-49
2021/06/21 01:07:46;;;;;;;16.00;14.07;;;18.90;92.00;;;;;;5095802;28;20032;-48
2021/06/21 01:10:15;;;;;;;17.38;15.35;;;18.80;91.90;;;;;;5095776;28;20031;-48
2021/06/21 01:13:10;;;;;;;18.60;16.63;;;18.90;91.90;;;;;;5095625;28;20027;-47
2021/06/21 01:15:45;;;;;;;16.30;14.65;;;18.80;92.00;;;;;;5095957;28;20031;-48
2021/06/21 01:18:27;;;;;;;22.92;17.70;;;18.70;91.80;;;;;;5095925;28;20068;-48
2021/06/21 01:21:02;;;;;;;18.83;16.75;;;18.80;92.40;;;;;;5096154;28;20016;-50
2021/06/21 01:23:46;;;;;;;17.13;15.40;;;18.70;92.20;;;;;;5095526;28;20031;-51
2021/06/21 01:26:36;;;;;;;17.17;15.25;;;18.80;92.50;;;;;;5095684;28;20020;-52
2021/06/21 01:29:17;;;;;;;20.17;15.80;;;18.80;92.30;;;;;;5095004;28;20036;-51
2021/06/21 01:32:16;;;;;;;16.20;14.65;;;18.70;92.40;;;;;;5077690;28;20089;-50
2021/06/21 01:34:48;;;;;;;16.00;14.23;;;18.60;92.80;;;;;;5095594;28;20104;-49
2021/06/21 01:37:17;;;;;;;19.50;16.05;;;18.50;92.20;;;;;;5095651;28;20082;-49
2021/06/21 01:39:46;;;;;;;19.17;16.27;;;18.50;92.10;;;;;;5078312;28;20123;-54
2021/06/21 01:42:16;;;;;;;18.53;16.63;;;18.40;92.40;;;;;;5094903;28;20313;-47
2021/06/21 01:44:52;;;;;;;18.92;16.02;;;18.30;92.30;;;;;;5095295;28;20118;-48
2021/06/21 01:47:18;;;;;;;17.75;15.07;;;18.30;92.50;;;;;;5095668;28;20031;-51
2021/06/21 01:49:46;;;;;;;18.75;16.83;;;18.30;92.30;;;;;;5077033;28;20028;-49
2021/06/21 01:52:14;;;;;;;18.63;16.25;;;18.30;92.50;;;;;;5095071;28;20379;-48
2021/06/21 01:54:45;;;;;;;18.10;16.17;;;18.20;92.70;;;;;;5095027;28;20081;-49
2021/06/21 01:57:11;;;;;;;21.90;17.33;;;18.20;92.40;;;;;;5095384;28;20095;-48
2021/06/21 01:59:37;;;;;;;17.48;15.88;;;18.20;92.70;;;;;;5094858;28;20020;-52
2021/06/21 02:02:04;;;;;;;18.58;16.52;;;18.10;92.50;;;;;;5076909;28;20073;-53
2021/06/21 02:04:32;;;;;;;17.30;15.40;;;18.10;92.60;;;;;;5077346;28;20055;-47
2021/06/21 02:07:01;;;;;;;18.67;16.75;;;18.00;92.90;;;;;;5076579;28;20020;-48
2021/06/21 02:09:27;;;;;;;18.95;16.40;;;18.00;92.70;;;;;;5094905;28;20052;-49
2021/06/21 02:11:54;;;;;;;15.60;14.10;;;18.00;92.20;;;;;;5094520;28;20020;-47
2021/06/21 02:14:24;;;;;;;16.70;15.00;;;17.90;91.90;;;;;;5094619;28;20077;-51
2021/06/21 02:16:52;;;;;;;17.38;15.65;;;17.90;92.30;;;;;;5094839;28;20020;-48
2021/06/21 02:19:20;;;;;;;18.20;15.68;;;17.80;92.00;;;;;;5095174;28;20476;-49
2021/06/21 02:21:48;;;;;;;19.33;17.00;;;17.80;92.20;;;;;;5094779;28;20028;-50
2021/06/21 02:24:16;;;;;;;20.85;16.77;;;17.80;92.30;;;;;;5094593;28;20028;-49
2021/06/21 02:26:44;;;;;;;20.20;18.02;;;17.70;92.10;;;;;;5094519;28;20039;-48
2021/06/21 02:29:11;;;;;;;22.88;18.27;;;17.70;92.20;;;;;;5094364;28;20034;-47
2021/06/21 02:31:37;;;;;;;19.58;17.23;;;17.70;92.20;;;;;;5093983;28;20040;-50
2021/06/21 02:34:02;;;;;;;25.52;19.17;;;17.70;92.00;;;;;;5094236;28;20055;-48
2021/06/21 02:36:28;;;;;;;21.00;18.10;;;17.60;91.90;;;;;;5094430;28;20055;-52
2021/06/21 02:38:54;;;;;;;19.38;16.73;;;17.50;92.10;;;;;;5094138;28;20031;-47
2021/06/21 02:41:20;;;;;;;21.10;18.90;;;17.50;91.90;;;;;;5095033;28;20103;-48
2021/06/21 02:43:46;;;;;;;21.13;18.88;;;17.50;92.00;;;;;;5094489;28;20024;-49
2021/06/21 02:46:12;;;;;;;19.35;17.30;;;17.50;92.10;;;;;;5094729;28;20031;-47
2021/06/21 02:48:40;;;;;;;20.50;18.40;;;17.40;92.00;;;;;;5094038;28;20031;-47
2021/06/21 02:51:07;;;;;;;21.00;18.65;;;17.30;92.10;;;;;;5093865;28;20032;-47
2021/06/21 02:53:57;;;;;;;22.05;19.45;;;17.30;92.00;;;;;;5093630;28;20020;-48
2021/06/21 02:56:49;;;;;;;24.63;19.55;;;17.40;91.90;;;;;;5093942;28;20437;-47
2021/06/21 02:59:19;;;;;;;22.23;18.40;;;17.40;91.80;;;;;;5094172;28;20020;-47
2021/06/21 03:01:55;;;;;;;27.92;19.38;;;17.30;92.00;;;;;;5094107;28;20035;-48
2021/06/21 03:04:23;;;;;;;24.00;17.95;;;17.30;92.10;;;;;;5093806;28;20038;-47
2021/06/21 03:06:52;;;;;;;19.95;17.85;;;17.30;92.00;;;;;;5093751;28;20086;-50
2021/06/21 03:09:19;;;;;;;24.35;19.83;;;17.20;91.50;;;;;;5059479;28;20107;-46
2021/06/21 03:11:49;;;;;;;19.40;17.33;;;17.20;92.30;;;;;;5093624;28;20103;-49
2021/06/21 03:14:16;;;;;;;24.23;17.92;;;17.20;92.20;;;;;;5093770;28;20024;-48
2021/06/21 03:16:43;;;;;;;20.83;18.58;;;17.10;92.20;;;;;;5093703;28;20024;-49
2021/06/21 03:19:13;;;;;;;19.52;17.52;;;17.10;92.60;;;;;;5094243;28;20103;-49
2021/06/21 03:21:42;;;;;;;24.48;19.55;;;16.90;92.50;;;;;;5093635;28;20529;-48
2021/06/21 03:24:08;;;;;;;22.48;18.35;;;16.80;92.80;;;;;;5075797;28;20415;-47
2021/06/21 03:26:33;;;;;;;21.38;18.63;;;16.80;92.80;;;;;;5093764;28;20034;-48
2021/06/21 03:28:59;;;;;;;21.85;16.05;;;16.80;92.70;;;;;;5093814;28;20039;-48
2021/06/21 03:31:25;;;;;;;19.67;16.00;;;16.80;92.70;;;;;;5093643;28;20055;-48
2021/06/21 03:33:51;;;;;;;17.58;15.75;;;16.80;92.60;;;;;;5093831;28;20065;-47
2021/06/21 03:36:17;;;;;;;18.38;15.45;;;16.80;92.40;;;;;;5075700;28;20024;-52
2021/06/21 03:38:43;;;;;;;15.73;14.02;;;16.80;92.70;;;;;;5093739;28;20057;-49
2021/06/21 03:41:09;;;;;;;15.02;13.27;;;16.70;92.50;;;;;;5093645;28;20042;-52
2021/06/21 03:43:35;;;;;;;17.17;15.43;;;16.70;92.80;;;;;;5093420;28;20027;-49
2021/06/21 03:46:06;;;;;;;17.80;15.93;;;16.60;92.90;;;;;;5075168;28;20064;-48
2021/06/21 03:48:32;;;;;;;22.38;17.15;;;16.50;92.90;;;;;;5093367;28;20031;-47
2021/06/21 03:50:58;;;;;;;19.98;15.90;;;16.60;93.50;;;;;;5093139;28;20115;-48
2021/06/21 03:53:26;;;;;;;18.95;14.52;;;16.60;93.20;;;;;;5093207;28;20116;-49
2021/06/21 03:55:52;;;;;;;17.75;14.45;;;16.60;93.30;;;;;;5093368;28;20027;-49
2021/06/21 03:58:18;;;;;;;17.25;12.88;;;16.50;93.20;;;;;;5093088;28;20448;-49
2021/06/21 04:00:44;;;;;;;17.25;13.45;;;16.50;93.30;;;;;;5093103;28;20084;-48
2021/06/21 04:03:10;;;;;;;14.30;12.07;;;16.40;93.50;;;;;;5093538;28;20024;-47
2021/06/21 04:05:39;;;;;;;17.67;12.07;;;16.40;93.70;;;;;;5096900;28;20095;-48
2021/06/21 04:08:06;;;;;;;13.60;11.85;;;16.40;93.30;;;;;;5097669;28;20536;-47
2021/06/21 04:10:32;;;;;;;12.20;10.27;;;16.50;93.40;;;;;;5096849;28;20028;-48
2021/06/21 04:12:58;;;;;;;12.20;10.90;;;16.40;93.10;;;;;;5078530;28;20024;-51
2021/06/21 04:15:28;;;;;;;14.13;11.68;;;16.40;93.40;;;;;;5096745;28;20031;-47
2021/06/21 04:17:55;;;;;;;14.90;11.55;;;16.40;93.50;;;;;;5096972;28;20048;-51
2021/06/21 04:20:20;;;;;;;12.15;10.90;;;16.40;93.40;;;;;;5096790;28;20100;-48
2021/06/21 04:22:46;;;;;;;14.77;12.77;;;16.40;93.20;;;;;;5096561;28;20527;-48
2021/06/21 04:25:14;;;;;;;15.52;13.85;;;16.40;93.40;;;;;;5096710;28;20104;-49
2021/06/21 04:27:41;;;;;;;14.20;12.50;;;16.40;93.40;;;;;;5078760;28;20169;-49
2021/06/21 04:30:09;;;;;;;15.90;13.10;;;16.30;93.30;;;;;;5078424;28;20111;-49
2021/06/21 04:32:35;;;;;;;16.48;14.15;;;16.30;93.30;;;;;;5096600;28;20039;-48
2021/06/21 04:35:01;;;;;;;16.60;13.25;;;16.50;93.50;;;;;;5096312;28;20031;-51
2021/06/21 04:37:27;;;;;;;15.63;13.60;;;16.40;92.70;;;;;;5096477;28;20031;-50
2021/06/21 04:39:52;;;;;;;19.45;14.65;;;16.40;92.90;;;;;;5096367;28;20020;-49
2021/06/21 04:42:18;;;;;;;17.80;14.00;;;16.30;93.40;;;;;;5096303;28;20028;-49
2021/06/21 04:44:45;;;;;;;19.70;15.60;;;16.40;93.40;;;;;;5096531;28;20032;-48
2021/06/21 04:47:11;;;;;;;17.90;15.60;;;16.50;93.30;;;;;;5096170;28;20030;-48
2021/06/21 04:49:37;;;;;;;17.52;15.05;;;16.50;93.20;;;;;;5096488;28;20447;-48
2021/06/21 04:52:05;;;;;;;16.33;14.45;;;16.50;93.30;;;;;;5096229;28;20043;-48
2021/06/21 04:54:31;;;;;;;19.45;15.45;;;16.60;93.10;;;;;;5096315;28;20024;-48
2021/06/21 04:56:57;;;;;;;18.48;15.00;;;16.80;93.30;;;;;;5096018;28;20529;-48
2021/06/21 04:59:22;;;;;;;16.60;13.57;;;16.80;92.90;;;;;;5096271;28;20016;-50
2021/06/21 05:01:48;;;;;;;15.35;13.75;;;16.60;92.20;;;;;;5095823;28;20036;-48
2021/06/21 05:04:13;;;;;;;15.05;13.15;;;16.60;92.60;;;;;;5077587;28;20508;-47
2021/06/21 05:06:39;;;;;;;14.80;12.90;;;16.60;92.80;;;;;;5096104;28;20074;-51
2021/06/21 05:09:07;;;;;;;18.52;14.50;;;16.70;92.80;;;;;;5095747;28;20063;-48
2021/06/21 05:11:34;;;;;;;20.13;15.85;;;16.70;93.20;;;;;;5095608;28;20138;-49
2021/06/21 05:14:00;;;;;;;16.42;14.45;;;16.70;93.60;;;;;;5095611;28;20057;-48
2021/06/21 05:16:26;;;;;;;17.00;14.80;;;16.70;92.70;;;;;;5094809;28;20020;-47
2021/06/21 05:18:52;;;;;;;17.92;15.88;;;16.70;93.30;;;;;;5095478;28;20024;-47
2021/06/21 05:21:19;;;;;;;17.73;14.75;;;16.80;92.90;;;;;;5095604;28;20031;-48
2021/06/21 05:23:45;;;;;;;17.92;15.73;;;16.60;93.00;;;;;;5095248;28;20050;-49
2021/06/21 05:26:10;;;;;;;31.17;18.55;;;16.70;93.30;;;;;;5077140;28;20119;-51
2021/06/21 05:28:36;;;;;;;17.30;15.27;;;16.80;93.60;;;;;;5095428;28;20479;-48
2021/06/21 05:31:02;;;;;;;16.45;14.50;;;16.90;93.20;;;;;;5095125;28;20090;-50
2021/06/21 05:33:27;;;;;;;19.23;14.80;;;16.90;92.90;;;;;;5095346;28;20036;-48
2021/06/21 05:35:53;;;;;;;18.65;15.70;;;16.90;92.80;;;;;;5095610;28;20052;-47
2021/06/21 05:38:19;;;;;;;19.02;15.40;;;16.90;92.90;;;;;;5095593;28;20019;-47
2021/06/21 05:40:45;;;;;;;17.30;13.63;;;17.00;92.50;;;;;;5095045;28;20035;-48
2021/06/21 05:43:10;;;;;;;17.00;14.68;;;17.00;92.70;;;;;;5095743;28;20020;-47
2021/06/21 05:45:36;;;;;;;17.10;14.57;;;16.90;92.60;;;;;;5094866;28;20032;-48
2021/06/21 05:48:04;;;;;;;17.13;15.38;;;17.00;93.10;;;;;;5094906;28;20048;-51
2021/06/21 05:50:30;;;;;;;19.20;15.63;;;17.10;92.60;;;;;;5094941;28;20028;-49
2021/06/21 05:52:55;;;;;;;18.77;13.77;;;17.10;92.60;;;;;;5094622;28;20039;-48
2021/06/21 05:55:23;;;;;;;14.27;12.85;;;17.20;92.60;;;;;;5094788;28;20467;-52
2021/06/21 05:57:53;;;;;;;16.13;14.48;;;17.20;92.40;;;;;;5094533;28;20024;-47
2021/06/21 06:00:20;;;;;;;16.38;14.68;;;17.30;92.00;;;;;;5094829;28;20421;-51
2021/06/21 06:02:46;;;;;;;16.80;13.82;;;17.20;92.20;;;;;;5094415;28;20036;-47
2021/06/21 06:05:12;;;;;;;17.80;15.88;;;17.30;92.20;;;;;;5094904;28;20078;-48
2021/06/21 06:07:37;;;;;;;19.25;16.27;;;17.30;92.30;;;;;;5076363;28;20031;-49
2021/06/21 06:10:04;;;;;;;17.77;13.38;;;17.30;92.50;;;;;;5075933;28;20129;-46
2021/06/21 06:12:30;;;;;;;16.17;14.43;;;17.30;92.30;;;;;;5094167;28;20028;-50
2021/06/21 06:14:55;;;;;;;15.25;13.23;;;17.30;92.20;;;;;;5094584;28;20080;-49
2021/06/21 06:17:21;;;;;;;16.02;13.82;;;17.30;91.80;;;;;;5094510;28;20532;-47
2021/06/21 06:19:46;;;;;;;16.67;12.98;;;17.30;91.50;;;;;;5094571;28;20068;-47
2021/06/21 06:22:12;;;;;;;16.25;13.57;;;17.30;92.00;;;;;;5094666;28;20152;-47
2021/06/21 06:24:38;;;;;;;17.25;13.95;;;17.20;92.00;;;;;;5094736;28;20024;-51
2021/06/21 06:27:04;;;;;;;15.88;14.13;;;17.30;92.10;;;;;;5094971;28;20540;-47
2021/06/21 06:29:32;;;;;;;17.38;14.23;;;17.30;91.70;;;;;;5076021;28;20056;-50
2021/06/21 06:31:58;;;;;;;20.70;14.98;;;17.30;90.80;;;;;;5094194;28;20076;-46
2021/06/21 06:34:24;;;;;;;18.02;14.52;;;17.30;91.50;;;;;;5094654;28;20089;-46
2021/06/21 06:36:52;;;;;;;15.80;14.20;;;17.30;91.30;;;;;;5094299;28;20039;-48
2021/06/21 06:39:17;;;;;;;15.30;13.45;;;17.30;91.70;;;;;;5094259;28;20024;-49
2021/06/21 06:41:43;;;;;;;16.13;13.23;;;17.20;92.10;;;;;;5094487;28;20412;-48
2021/06/21 06:44:08;;;;;;;14.48;13.05;;;17.40;90.70;;;;;;5093999;28;20024;-50
2021/06/21 06:46:34;;;;;;;16.05;13.57;;;17.30;91.30;;;;;;5093864;28;20446;-50
2021/06/21 06:49:00;;;;;;;17.15;14.63;;;17.30;91.20;;;;;;5094068;28;20115;-46
2021/06/21 06:51:31;;;;;;;17.35;14.13;;;17.10;91.60;;;;;;5093767;28;20436;-49
2021/06/21 06:54:11;;;;;;;17.02;15.40;;;17.20;92.00;;;;;;5094088;28;20036;-47
2021/06/21 06:59:20;;;;;;;16.77;13.23;;;17.30;91.60;;;;;;5094043;28;20054;-52
2021/06/21 07:01:46;;;;;;;15.88;14.32;;;17.40;91.80;;;;;;5093347;28;20403;-48
2021/06/21 07:04:12;;;;;;;15.63;13.40;;;17.30;91.80;;;;;;5093363;28;20035;-49
2021/06/21 07:06:38;;;;;;;15.70;13.95;;;17.40;91.40;;;;;;5093821;28;20028;-50
2021/06/21 07:09:04;;;;;;;16.50;13.10;;;17.50;91.30;;;;;;5093984;28;20063;-48
2021/06/21 07:11:35;;;;;;;15.43;11.93;;;17.70;90.90;;;;;;5093517;28;20029;-48
2021/06/21 07:14:00;;;;;;;14.18;12.52;;;17.80;90.70;;;;;;5094085;28;20016;-48
2021/06/21 07:16:26;;;;;;;13.75;11.77;;;17.80;90.30;;;;;;5093130;28;20336;-48
2021/06/21 07:18:52;;;;;;;16.20;11.93;;;17.80;90.30;;;;;;5093396;28;20173;-47
2021/06/21 07:21:17;;;;;;;16.58;11.70;;;17.80;90.60;;;;;;5092959;28;20024;-49
2021/06/21 07:23:43;;;;;;;12.48;10.88;;;17.80;89.90;;;;;;5093507;28;20451;-49
2021/06/21 07:26:09;;;;;;;13.32;11.00;;;18.00;89.80;;;;;;5075389;28;20490;-50
2021/06/21 07:28:35;;;;;;;13.80;10.40;;;18.10;89.60;;;;;;5076090;28;20028;-50
2021/06/21 07:31:02;;;;;;;11.68;10.43;;;18.00;89.10;;;;;;5093558;28;20075;-47
2021/06/21 07:33:27;;;;;;;11.55;10.35;;;18.20;89.10;;;;;;5093794;28;20032;-49
2021/06/21 07:35:53;;;;;;;12.63;10.73;;;18.10;89.20;;;;;;5093289;28;20034;-48
2021/06/21 07:38:19;;;;;;;12.30;10.93;;;18.40;88.00;;;;;;5093007;28;20422;-49
2021/06/21 07:40:45;;;;;;;12.05;10.82;;;18.50;87.60;;;;;;5092809;28;20024;-49
2021/06/21 07:43:11;;;;;;;11.38;10.30;;;18.40;88.10;;;;;;5092757;28;20032;-50
2021/06/21 07:45:37;;;;;;;11.68;10.18;;;18.40;88.10;;;;;;5093147;28;20104;-48
2021/06/21 07:48:03;;;;;;;14.73;9.93;;;18.50;87.20;;;;;;5075095;28;20495;-49
2021/06/21 07:50:30;;;;;;;11.73;10.00;;;18.50;87.30;;;;;;5093542;28;20059;-48
2021/06/21 07:52:57;;;;;;;10.75;9.70;;;18.30;88.30;;;;;;5093649;28;20028;-48
2021/06/21 07:55:24;;;;;;;12.43;10.20;;;18.20;88.90;;;;;;5092968;28;20020;-48
2021/06/21 07:57:51;;;;;;;12.00;10.10;;;18.40;88.80;;;;;;5092737;28;20020;-49
2021/06/21 08:00:24;;;;;;;13.02;10.63;;;18.30;88.20;;;;;;5092843;28;20024;-47
2021/06/21 08:02:53;;;;;;;18.20;11.27;;;18.30;88.00;;;;;;5078050;28;20028;-51
2021/06/21 08:05:20;;;;;;;14.50;10.43;;;18.30;88.50;;;;;;5094228;28;20024;-48
2021/06/21 08:07:46;;;;;;;13.23;11.43;;;18.30;88.80;;;;;;5093311;28;20039;-50
2021/06/21 08:10:13;;;;;;;12.93;10.18;;;18.20;89.20;;;;;;5092926;28;20491;-48
2021/06/21 08:12:39;;;;;;;12.32;10.98;;;18.30;89.30;;;;;;5092872;28;20032;-48
2021/06/21 08:15:06;;;;;;;15.02;12.15;;;18.30;89.10;;;;;;5092938;28;20024;-48
2021/06/21 08:17:33;;;;;;;15.32;12.23;;;18.40;89.30;;;;;;5093348;28;20440;-47
2021/06/21 08:19:59;;;;;;;15.27;12.88;;;18.20;90.00;;;;;;5074687;28;20115;-47
2021/06/21 08:22:24;;;;;;;20.50;14.65;;;17.90;90.90;;;;;;5074273;28;20070;-50
2021/06/21 08:24:51;;;;;;;16.02;14.13;;;17.80;91.50;;;;;;5092662;28;20028;-47
2021/06/21 08:27:17;;;;;;;19.00;13.80;;;17.90;91.50;;;;;;5092479;28;20052;-49
2021/06/21 08:29:44;;;;;;;15.48;13.25;;;17.90;90.80;;;;;;5092540;28;20028;-48
2021/06/21 08:32:11;;;;;;;14.00;12.30;;;17.90;91.00;;;;;;5092559;28;20048;-47
2021/06/21 08:34:37;;;;;;;15.50;13.63;;;18.00;90.80;;;;;;5092219;28;20024;-48
2021/06/21 08:37:04;;;;;;;15.57;13.07;;;18.00;91.00;;;;;;5057739;28;20472;-46
2021/06/21 08:39:29;;;;;;;15.10;12.07;;;18.00;91.10;;;;;;5074629;28;20020;-47
2021/06/21 08:41:56;;;;;;;13.98;12.57;;;18.10;90.30;;;;;;5074089;28;20024;-46
2021/06/21 08:44:22;;;;;;;14.18;12.68;;;18.20;90.90;;;;;;5092030;28;20388;-49
2021/06/21 08:46:50;;;;;;;15.73;12.23;;;18.20;91.00;;;;;;5092313;28;20039;-48
2021/06/21 08:49:18;;;;;;;14.93;13.27;;;18.40;90.40;;;;;;5092247;28;20373;-47
2021/06/21 08:51:44;;;;;;;13.68;12.27;;;18.50;90.10;;;;;;5094516;28;20024;-48
2021/06/21 08:54:10;;;;;;;12.98;11.65;;;18.60;90.00;;;;;;5078803;28;20026;-48
2021/06/21 08:56:36;;;;;;;11.98;10.85;;;18.80;89.80;;;;;;5095974;28;20095;-46
2021/06/21 08:59:06;;;;;;;11.60;9.55;;;18.70;89.80;;;;;;5096507;28;20042;-51
2021/06/21 09:01:32;;;;;;;12.20;10.35;;;18.80;88.50;;;;;;5078023;28;20048;-46
2021/06/21 09:04:00;;;;;;;11.75;10.48;;;18.80;88.70;;;;;;5077639;28;20035;-49
2021/06/21 09:06:33;;;;;;;13.43;10.45;;;18.90;88.60;;;;;;5095739;28;20027;-52
2021/06/21 09:09:02;;;;;;;12.10;10.95;;;19.00;89.20;;;;;;5096212;28;20030;-48
2021/06/21 09:11:49;;;;;;;12.45;11.25;;;19.10;87.70;;;;;;5095970;28;20107;-51
2021/06/21 09:14:24;;;;;;;16.13;11.25;;;18.80;88.80;;;;;;5077699;28;20016;-50
2021/06/21 09:16:51;;;;;;;11.55;10.43;;;18.80;89.30;;;;;;5095756;28;20103;-50
2021/06/21 09:19:20;;;;;;;12.27;11.18;;;18.70;89.10;;;;;;5095008;28;20028;-48
2021/06/21 09:21:46;;;;;;;11.57;10.38;;;18.80;88.80;;;;;;5095171;28;20024;-47
2021/06/21 09:24:19;;;;;;;12.35;11.25;;;18.80;88.60;;;;;;5077485;28;20035;-48
2021/06/21 09:26:46;;;;;;;12.10;10.68;;;18.70;88.90;;;;;;5095493;28;20039;-51
2021/06/21 09:29:12;;;;;;;12.27;11.02;;;18.60;88.30;;;;;;5095381;28;20442;-47
2021/06/21 09:31:56;;;;;;;12.00;10.68;;;18.70;88.50;;;;;;5094777;28;20084;-49
2021/06/21 09:34:23;;;;;;;11.90;10.77;;;18.60;88.80;;;;;;5095611;28;20035;-50
2021/06/21 09:36:50;;;;;;;11.05;9.95;;;18.80;88.30;;;;;;5095705;28;20493;-50
2021/06/21 09:39:32;;;;;;;16.77;11.10;;;18.80;87.90;;;;;;5096419;28;20027;-50
2021/06/21 09:42:09;;;;;;;12.68;11.43;;;18.80;88.00;;;;;;5095316;28;20060;-48
2021/06/21 09:44:52;;;;;;;15.20;11.98;;;18.70;88.40;;;;;;5095284;28;20020;-48
2021/06/21 09:47:29;;;;;;;11.63;10.48;;;18.80;88.20;;;;;;5076562;28;20391;-48
2021/06/21 09:50:03;;;;;;;11.70;10.57;;;18.80;87.80;;;;;;5076638;28;20475;-49
2021/06/21 09:52:32;;;;;;;12.07;9.85;;;19.00;87.20;;;;;;5094734;28;20149;-48
2021/06/21 09:54:58;;;;;;;14.23;10.27;;;19.10;86.90;;;;;;5095726;28;20317;-48
2021/06/21 09:57:25;;;;;;;11.50;10.30;;;19.00;86.60;;;;;;5095300;28;20024;-49
2021/06/21 09:59:52;;;;;;;13.15;11.95;;;19.00;86.20;;;;;;5094539;28;20027;-48
2021/06/21 10:02:24;;;;;;;11.63;10.40;;;18.90;86.70;;;;;;5093905;28;20110;-49
2021/06/21 10:04:50;;;;;;;12.88;11.68;;;19.00;87.10;;;;;;5094495;28;20039;-51
2021/06/21 10:07:36;;;;;;;13.75;8.82;;;19.20;86.40;;;;;;5094099;28;20031;-49
2021/06/21 10:10:14;;;;;;;13.05;9.07;;;19.30;84.80;;;;;;5076237;28;20073;-48
2021/06/21 10:12:40;;;;;;;10.65;9.55;;;19.30;85.00;;;;;;5093950;28;20016;-50
2021/06/21 10:15:08;;;;;;;13.63;11.40;;;19.30;84.80;;;;;;5095387;28;20079;-49
2021/06/21 10:17:34;;;;;;;14.43;11.00;;;19.20;85.50;;;;;;5094033;28;20040;-46
2021/06/21 10:20:05;;;;;;;15.45;13.13;;;18.90;86.80;;;;;;5093917;28;20028;-49
2021/06/21 10:22:31;;;;;;;16.05;14.25;;;18.80;87.60;;;;;;5094178;28;20024;-47
2021/06/21 10:24:58;;;;;;;23.13;20.70;;;18.80;86.30;;;;;;5077194;28;20028;-49
2021/06/21 10:27:25;;;;;;;23.63;20.98;;;18.80;86.10;;;;;;5093887;28;20043;-50
2021/06/21 10:29:55;;;;;;;21.23;17.65;;;18.60;87.30;;;;;;5094238;28;20045;-49
2021/06/21 10:32:23;;;;;;;17.65;14.45;;;18.10;88.10;;;;;;5093271;28;20092;-52
2021/06/21 10:34:49;;;;;;;13.48;11.75;;;18.20;87.20;;;;;;5075618;28;20035;-48
2021/06/21 10:37:21;;;;;;;11.98;8.98;;;18.20;87.30;;;;;;5094017;28;20020;-49
2021/06/21 10:39:58;;;;;;;8.18;6.10;;;17.90;87.40;;;;;;5094131;28;20024;-51
2021/06/21 10:42:26;;;;;;;6.97;6.18;;;17.70;87.70;;;;;;5094080;28;20101;-48
2021/06/21 10:44:55;;;;;;;5.38;4.88;;;17.80;87.70;;;;;;5075611;28;20395;-48
2021/06/21 10:47:34;;;;;;;6.43;5.05;;;17.80;86.90;;;;;;5093361;28;20016;-47
2021/06/21 10:50:20;;;;;;;4.67;4.27;;;17.90;87.00;;;;;;5094501;28;20032;-47
2021/06/21 10:52:49;;;;;;;3.58;3.28;;;17.90;87.10;;;;;;5093434;28;20278;-47
2021/06/21 10:55:27;;;;;;;3.88;3.55;;;17.90;86.00;;;;;;5093496;28;20104;-52
2021/06/21 10:58:09;;;;;;;4.20;3.80;;;17.60;87.20;;;;;;5093706;28;20103;-47
2021/06/21 11:00:44;;;;;;;5.80;4.30;;;17.70;86.50;;;;;;5093152;28;20049;-48
2021/06/21 11:03:25;;;;;;;4.72;3.80;;;17.70;86.40;;;;;;5093248;28;20039;-47
2021/06/21 11:05:52;;;;;;;4.22;3.83;;;17.70;87.30;;;;;;5093734;28;20487;-52
2021/06/21 11:08:26;;;;;;;4.55;3.75;;;17.60;87.20;;;;;;5093236;28;20032;-48
2021/06/21 11:10:58;;;;;;;3.63;3.33;;;17.60;86.20;;;;;;5093867;28;20020;-48
2021/06/21 11:13:36;;;;;;;3.00;2.80;;;17.50;87.60;;;;;;5074226;28;20035;-48
2021/06/21 11:16:14;;;;;;;3.10;2.85;;;17.60;87.00;;;;;;5093453;28;20024;-50
2021/06/21 11:18:41;;;;;;;4.28;2.92;;;17.50;86.80;;;;;;5093485;28;20013;-47
2021/06/21 11:21:14;;;;;;;2.65;2.38;;;17.50;87.00;;;;;;5093348;28;20039;-51
2021/06/21 11:23:46;;;;;;;4.95;2.08;;;17.80;86.10;;;;;;5075725;28;20020;-50
2021/06/21 11:26:11;;;;;;;2.55;2.15;;;17.50;87.10;;;;;;5093332;28;20020;-48
2021/06/21 11:28:43;;;;;;;1.98;1.80;;;17.60;86.10;;;;;;5093240;28;20032;-51
2021/06/21 11:31:17;;;;;;;2.90;2.28;;;17.30;87.50;;;;;;5093026;28;20511;-49
2021/06/21 11:33:50;;;;;;;2.53;2.33;;;17.20;88.00;;;;;;5093348;28;20039;-49
2021/06/21 11:36:43;;;;;;;2.17;2.00;;;17.30;87.00;;;;;;5075206;28;20048;-50
2021/06/21 11:39:29;;;;;;;2.13;1.92;;;16.90;88.30;;;;;;5074567;28;20048;-51
2021/06/21 11:42:03;;;;;;;2.00;1.90;;;16.80;88.40;;;;;;5075554;28;20479;-48
2021/06/21 11:44:38;;;;;;;2.33;2.13;;;16.80;89.30;;;;;;5093958;28;20047;-48
2021/06/21 11:47:24;;;;;;;1.95;1.75;;;16.70;88.90;;;;;;5092880;28;20397;-47
2021/06/21 11:49:53;;;;;;;1.90;1.80;;;16.50;89.10;;;;;;5093140;28;20514;-48
2021/06/21 11:52:21;;;;;;;2.08;1.88;;;16.50;89.60;;;;;;5093268;28;20025;-51
2021/06/21 11:54:48;;;;;;;2.10;1.90;;;16.50;89.60;;;;;;5092932;28;20031;-49
2021/06/21 11:57:15;;;;;;;2.95;2.72;;;16.30;89.80;;;;;;5094533;28;20088;-47
2021/06/21 11:59:43;;;;;;;1.80;1.60;;;16.00;90.40;;;;;;5096165;28;20016;-54
2021/06/21 12:02:13;;;;;;;1.70;1.60;;;15.80;90.40;;;;;;5075867;28;20020;-50
2021/06/21 12:04:41;;;;;;;2.42;2.22;;;15.80;90.60;;;;;;5093290;28;20028;-55
2021/06/21 12:07:08;;;;;;;2.25;1.52;;;15.70;90.40;;;;;;5094876;28;20476;-49
2021/06/21 12:09:51;;;;;;;1.60;1.50;;;15.70;90.00;;;;;;5092668;28;20034;-49
2021/06/21 12:12:26;;;;;;;2.35;1.90;;;15.80;89.30;;;;;;5092905;28;20035;-46
2021/06/21 12:14:52;;;;;;;2.33;1.98;;;16.00;89.60;;;;;;5074567;28;20493;-47
2021/06/21 12:17:22;;;;;;;1.83;1.73;;;16.30;88.70;;;;;;5075016;28;20036;-46
2021/06/21 12:20:14;;;;;;;1.80;1.52;;;16.20;88.70;;;;;;5093240;28;20347;-49
2021/06/21 12:22:51;;;;;;;2.10;1.88;;;16.10;88.80;;;;;;5093209;28;20103;-51
2021/06/21 12:25:38;;;;;;;1.80;1.70;;;16.10;88.90;;;;;;5076058;28;20028;-47
2021/06/21 12:28:11;;;;;;;2.15;1.95;;;15.90;88.60;;;;;;5096771;28;20036;-48
2021/06/21 12:30:42;;;;;;;1.85;1.75;;;15.80;87.70;;;;;;5078152;28;20060;-50
2021/06/21 12:33:28;;;;;;;1.77;1.67;;;15.90;88.90;;;;;;5096463;28;20028;-50
2021/06/21 12:36:01;;;;;;;2.33;1.83;;;16.00;88.90;;;;;;5096642;28;20031;-47
2021/06/21 12:38:28;;;;;;;2.30;2.10;;;16.10;88.50;;;;;;5097315;28;20383;-48
2021/06/21 12:40:54;;;;;;;2.45;2.25;;;16.00;89.10;;;;;;5096817;28;20027;-46
2021/06/21 12:43:20;;;;;;;1.92;1.60;;;16.10;87.80;;;;;;5097153;28;20020;-47